sensor_id;sensor_type;location;lat;lon;timestamp;temperature;humidity
21770;DHT22;11046;49.558;8.674;2023-02-20T00:02:58;8.60;99.90
21770;DHT22;11046;49.558;8.674;2023-02-20T00:05:59;8.60;99.90
21770;DHT22;11046;49.558;8.674;2023-02-20T00:09:00;8.60;99.90
21770;DHT22;11046;49.558;8.674;2023-02-20T00:12:00;8.70;99.90
21770;DHT22;11046;49.558;8.674;2023-02-20T00:15:01;8.60;99.90
21770;DHT22;11046;49.558;8.674;2023-02-20T00:18:01;8.70;99.90
21770;DHT22;11046;49.558;8.674;2023-02-20T00:21:04;8.80;99.90
21770;DHT22;11046;49.558;8.674;2023-02-20T00:24:05;8.80;99.90
21770;DHT22;11046;49.558;8.674;2023-02-20T00:27:05;8.80;99.90
21770;DHT22;11046;49.558;8.674;2023-02-20T00:30:06;8.90;99.90
21770;DHT22;11046;49.558;8.674;2023-02-20T00:33:07;8.80;99.90
21770;DHT22;11046;49.558;8.674;2023-02-20T00:36:16;8.80;99.90
21770;DHT22;11046;49.558;8.674;2023-02-20T00:39:18;8.80;99.90
21770;DHT22;11046;49.558;8.674;2023-02-20T00:42:19;8.80;99.90
21770;DHT22;11046;49.558;8.674;2023-02-20T00:45:20;8.70;99.90
21770;DHT22;11046;49.558;8.674;2023-02-20T00:48:20;8.60;99.90
21770;DHT22;11046;49.558;8.674;2023-02-20T00:51:21;8.50;99.90
21770;DHT22;11046;49.558;8.674;2023-02-20T00:54:22;8.50;99.90
21770;DHT22;11046;49.558;8.674;2023-02-20T00:57:22;8.40;99.90
21770;DHT22;11046;49.558;8.674;2023-02-20T01:00:26;8.40;99.90
21770;DHT22;11046;49.558;8.674;2023-02-20T01:03:27;8.40;99.90
21770;DHT22;11046;49.558;8.674;2023-02-20T01:06:27;8.40;99.90
21770;DHT22;11046;49.558;8.674;2023-02-20T01:09:28;8.40;99.90
21770;DHT22;11046;49.558;8.674;2023-02-20T01:12:28;8.40;99.90
21770;DHT22;11046;49.558;8.674;2023-02-20T01:15:29;8.30;99.90
21770;DHT22;11046;49.558;8.674;2023-02-20T01:18:31;8.30;99.90
21770;DHT22;11046;49.558;8.674;2023-02-20T01:21:31;8.20;99.90
21770;DHT22;11046;49.558;8.674;2023-02-20T01:24:32;8.20;99.90
21770;DHT22;11046;49.558;8.674;2023-02-20T01:27:33;8.10;99.90
21770;DHT22;11046;49.558;8.674;2023-02-20T01:30:33;8.00;99.90
21770;DHT22;11046;49.558;8.674;2023-02-20T01:33:34;7.90;99.90
21770;DHT22;11046;49.558;8.674;2023-02-20T01:36:34;7.80;99.90
21770;DHT22;11046;49.558;8.674;2023-02-20T01:39:35;7.70;99.90
21770;DHT22;11046;49.558;8.674;2023-02-20T01:42:36;7.60;99.90
21770;DHT22;11046;49.558;8.674;2023-02-20T01:45:37;7.50;99.90
21770;DHT22;11046;49.558;8.674;2023-02-20T01:48:38;7.40;99.90
21770;DHT22;11046;49.558;8.674;2023-02-20T01:51:43;7.30;99.90
21770;DHT22;11046;49.558;8.674;2023-02-20T01:54:51;7.30;99.90
21770;DHT22;11046;49.558;8.674;2023-02-20T01:58:00;7.10;99.90
21770;DHT22;11046;49.558;8.674;2023-02-20T02:01:02;7.00;99.90
21770;DHT22;11046;49.558;8.674;2023-02-20T02:04:06;7.00;99.90
21770;DHT22;11046;49.558;8.674;2023-02-20T02:07:08;6.90;99.90
21770;DHT22;11046;49.558;8.674;2023-02-20T02:10:12;6.80;99.90
21770;DHT22;11046;49.558;8.674;2023-02-20T02:13:13;6.70;99.90
21770;DHT22;11046;49.558;8.674;2023-02-20T02:30:35;6.40;99.90
21770;DHT22;11046;49.558;8.674;2023-02-20T02:40:51;6.20;99.90
21770;DHT22;11046;49.558;8.674;2023-02-20T02:44:14;6.20;99.90
21770;DHT22;11046;49.558;8.674;2023-02-20T02:50:36;6.10;99.90
21770;DHT22;11046;49.558;8.674;2023-02-20T02:53:39;6.00;99.90
21770;DHT22;11046;49.558;8.674;2023-02-20T02:56:42;5.90;99.90
21770;DHT22;11046;49.558;8.674;2023-02-20T02:59:46;5.90;99.90
21770;DHT22;11046;49.558;8.674;2023-02-20T03:06:28;5.90;99.90
21770;DHT22;11046;49.558;8.674;2023-02-20T03:09:40;5.80;99.90
21770;DHT22;11046;49.558;8.674;2023-02-20T03:12:46;5.90;99.90
21770;DHT22;11046;49.558;8.674;2023-02-20T03:15:51;5.90;99.90
21770;DHT22;11046;49.558;8.674;2023-02-20T03:18:58;5.90;99.90
21770;DHT22;11046;49.558;8.674;2023-02-20T03:22:01;5.90;99.90
21770;DHT22;11046;49.558;8.674;2023-02-20T03:25:09;6.00;99.90
21770;DHT22;11046;49.558;8.674;2023-02-20T03:28:41;6.10;99.90
21770;DHT22;11046;49.558;8.674;2023-02-20T03:31:48;6.10;99.90
21770;DHT22;11046;49.558;8.674;2023-02-20T03:34:51;6.10;99.90
21770;DHT22;11046;49.558;8.674;2023-02-20T03:38:12;6.10;99.90
21770;DHT22;11046;49.558;8.674;2023-02-20T03:41:34;6.20;99.90
21770;DHT22;11046;49.558;8.674;2023-02-20T03:44:55;6.20;99.90
21770;DHT22;11046;49.558;8.674;2023-02-20T03:48:02;6.20;99.90
21770;DHT22;11046;49.558;8.674;2023-02-20T03:51:07;6.20;99.90
21770;DHT22;11046;49.558;8.674;2023-02-20T03:54:17;6.10;99.90
21770;DHT22;11046;49.558;8.674;2023-02-20T03:57:25;6.20;99.90
21770;DHT22;11046;49.558;8.674;2023-02-20T04:00:35;6.10;99.90
21770;DHT22;11046;49.558;8.674;2023-02-20T04:03:40;6.10;99.90
21770;DHT22;11046;49.558;8.674;2023-02-20T04:06:46;6.10;99.90
21770;DHT22;11046;49.558;8.674;2023-02-20T04:09:48;6.10;99.90
21770;DHT22;11046;49.558;8.674;2023-02-20T04:12:50;6.10;99.90
21770;DHT22;11046;49.558;8.674;2023-02-20T04:15:53;6.10;99.90
21770;DHT22;11046;49.558;8.674;2023-02-20T04:18:55;6.10;99.90
21770;DHT22;11046;49.558;8.674;2023-02-20T04:22:01;6.00;99.90
21770;DHT22;11046;49.558;8.674;2023-02-20T04:28:42;6.00;99.90
21770;DHT22;11046;49.558;8.674;2023-02-20T04:31:44;6.00;99.90
21770;DHT22;11046;49.558;8.674;2023-02-20T04:34:46;6.00;99.90
21770;DHT22;11046;49.558;8.674;2023-02-20T04:37:48;6.00;99.90
21770;DHT22;11046;49.558;8.674;2023-02-20T04:40:48;6.00;99.90
21770;DHT22;11046;49.558;8.674;2023-02-20T04:43:50;6.00;99.90
21770;DHT22;11046;49.558;8.674;2023-02-20T04:47:16;6.00;99.90
21770;DHT22;11046;49.558;8.674;2023-02-20T04:50:28;6.00;99.90
21770;DHT22;11046;49.558;8.674;2023-02-20T04:53:30;6.10;99.90
21770;DHT22;11046;49.558;8.674;2023-02-20T04:56:33;6.00;99.90
21770;DHT22;11046;49.558;8.674;2023-02-20T04:59:34;6.00;99.90
21770;DHT22;11046;49.558;8.674;2023-02-20T05:02:37;6.00;99.90
21770;DHT22;11046;49.558;8.674;2023-02-20T05:05:37;5.90;99.90
21770;DHT22;11046;49.558;8.674;2023-02-20T05:08:38;5.90;99.90
21770;DHT22;11046;49.558;8.674;2023-02-20T05:11:39;5.90;99.90
21770;DHT22;11046;49.558;8.674;2023-02-20T05:14:39;5.90;99.90
21770;DHT22;11046;49.558;8.674;2023-02-20T05:17:40;6.00;99.90
21770;DHT22;11046;49.558;8.674;2023-02-20T05:20:41;6.00;99.90
21770;DHT22;11046;49.558;8.674;2023-02-20T05:24:00;5.90;99.90
21770;DHT22;11046;49.558;8.674;2023-02-20T05:27:00;5.90;99.90
21770;DHT22;11046;49.558;8.674;2023-02-20T05:30:01;5.90;99.90
21770;DHT22;11046;49.558;8.674;2023-02-20T05:33:02;5.90;99.90
21770;DHT22;11046;49.558;8.674;2023-02-20T05:36:03;6.00;99.90
21770;DHT22;11046;49.558;8.674;2023-02-20T05:39:04;6.00;99.90
21770;DHT22;11046;49.558;8.674;2023-02-20T05:42:05;6.00;99.90
21770;DHT22;11046;49.558;8.674;2023-02-20T05:45:06;5.90;99.90
21770;DHT22;11046;49.558;8.674;2023-02-20T05:48:10;5.90;99.90
21770;DHT22;11046;49.558;8.674;2023-02-20T05:51:22;5.90;99.90
21770;DHT22;11046;49.558;8.674;2023-02-20T05:54:23;5.90;99.90
21770;DHT22;11046;49.558;8.674;2023-02-20T05:57:24;5.90;99.90
21770;DHT22;11046;49.558;8.674;2023-02-20T06:00:25;5.90;99.90
21770;DHT22;11046;49.558;8.674;2023-02-20T06:03:25;5.90;99.90
21770;DHT22;11046;49.558;8.674;2023-02-20T06:06:40;5.90;99.90
21770;DHT22;11046;49.558;8.674;2023-02-20T06:09:42;5.80;99.90
21770;DHT22;11046;49.558;8.674;2023-02-20T06:12:43;5.80;99.90
21770;DHT22;11046;49.558;8.674;2023-02-20T06:15:44;5.80;99.90
21770;DHT22;11046;49.558;8.674;2023-02-20T06:18:44;5.70;99.90
21770;DHT22;11046;49.558;8.674;2023-02-20T06:21:45;5.70;99.90
21770;DHT22;11046;49.558;8.674;2023-02-20T06:24:46;5.70;99.90
21770;DHT22;11046;49.558;8.674;2023-02-20T06:27:47;5.70;99.90
21770;DHT22;11046;49.558;8.674;2023-02-20T06:30:48;5.60;99.90
21770;DHT22;11046;49.558;8.674;2023-02-20T06:33:48;5.60;99.90
21770;DHT22;11046;49.558;8.674;2023-02-20T06:36:49;5.50;99.90
21770;DHT22;11046;49.558;8.674;2023-02-20T06:39:49;5.50;99.90
21770;DHT22;11046;49.558;8.674;2023-02-20T06:42:50;5.60;99.90
21770;DHT22;11046;49.558;8.674;2023-02-20T06:45:50;5.60;99.90
21770;DHT22;11046;49.558;8.674;2023-02-20T06:48:56;5.60;99.90
21770;DHT22;11046;49.558;8.674;2023-02-20T06:51:57;5.50;99.90
21770;DHT22;11046;49.558;8.674;2023-02-20T06:54:57;5.60;99.90
21770;DHT22;11046;49.558;8.674;2023-02-20T06:57:58;5.70;99.90
21770;DHT22;11046;49.558;8.674;2023-02-20T07:00:59;5.70;99.90
21770;DHT22;11046;49.558;8.674;2023-02-20T07:03:59;5.80;99.90
21770;DHT22;11046;49.558;8.674;2023-02-20T07:07:01;5.90;99.90
21770;DHT22;11046;49.558;8.674;2023-02-20T07:10:02;6.00;99.90
21770;DHT22;11046;49.558;8.674;2023-02-20T07:13:05;6.10;99.90
21770;DHT22;11046;49.558;8.674;2023-02-20T07:16:06;6.10;99.90
21770;DHT22;11046;49.558;8.674;2023-02-20T07:19:06;6.10;99.90
21770;DHT22;11046;49.558;8.674;2023-02-20T07:22:07;6.20;99.90
21770;DHT22;11046;49.558;8.674;2023-02-20T07:25:07;6.30;99.90
21770;DHT22;11046;49.558;8.674;2023-02-20T07:28:08;6.30;99.90
21770;DHT22;11046;49.558;8.674;2023-02-20T07:31:09;6.40;99.90
21770;DHT22;11046;49.558;8.674;2023-02-20T07:34:09;6.40;99.90
21770;DHT22;11046;49.558;8.674;2023-02-20T07:37:13;6.50;99.90
21770;DHT22;11046;49.558;8.674;2023-02-20T07:40:14;6.50;99.90
21770;DHT22;11046;49.558;8.674;2023-02-20T07:43:15;6.60;99.90
21770;DHT22;11046;49.558;8.674;2023-02-20T07:46:16;6.60;99.90
21770;DHT22;11046;49.558;8.674;2023-02-20T07:49:17;6.70;99.90
21770;DHT22;11046;49.558;8.674;2023-02-20T07:52:17;6.90;99.90
21770;DHT22;11046;49.558;8.674;2023-02-20T07:55:18;7.10;99.90
21770;DHT22;11046;49.558;8.674;2023-02-20T07:58:19;7.40;99.90
21770;DHT22;11046;49.558;8.674;2023-02-20T08:01:20;7.60;99.90
21770;DHT22;11046;49.558;8.674;2023-02-20T08:04:20;7.80;99.90
21770;DHT22;11046;49.558;8.674;2023-02-20T08:07:21;7.80;99.90
21770;DHT22;11046;49.558;8.674;2023-02-20T08:10:24;8.00;99.90
21770;DHT22;11046;49.558;8.674;2023-02-20T08:13:25;8.20;99.90
21770;DHT22;11046;49.558;8.674;2023-02-20T08:16:25;8.20;99.90
21770;DHT22;11046;49.558;8.674;2023-02-20T08:19:26;8.20;99.90
21770;DHT22;11046;49.558;8.674;2023-02-20T08:22:26;8.20;99.90
21770;DHT22;11046;49.558;8.674;2023-02-20T08:25:27;8.20;99.90
21770;DHT22;11046;49.558;8.674;2023-02-20T08:28:28;8.10;99.90
21770;DHT22;11046;49.558;8.674;2023-02-20T08:31:28;8.10;99.90
21770;DHT22;11046;49.558;8.674;2023-02-20T08:34:29;8.10;99.90
21770;DHT22;11046;49.558;8.674;2023-02-20T08:37:29;8.20;99.90
21770;DHT22;11046;49.558;8.674;2023-02-20T08:40:30;8.30;99.90
21770;DHT22;11046;49.558;8.674;2023-02-20T08:43:30;8.40;99.90
21770;DHT22;11046;49.558;8.674;2023-02-20T08:46:31;8.60;99.90
21770;DHT22;11046;49.558;8.674;2023-02-20T08:49:31;8.60;99.90
21770;DHT22;11046;49.558;8.674;2023-02-20T08:52:32;8.70;99.90
21770;DHT22;11046;49.558;8.674;2023-02-20T08:55:32;8.90;99.90
21770;DHT22;11046;49.558;8.674;2023-02-20T08:58:33;9.00;99.90
21770;DHT22;11046;49.558;8.674;2023-02-20T09:01:34;9.00;99.90
21770;DHT22;11046;49.558;8.674;2023-02-20T09:04:34;9.10;99.90
21770;DHT22;11046;49.558;8.674;2023-02-20T09:07:35;9.20;99.80
21770;DHT22;11046;49.558;8.674;2023-02-20T09:10:35;9.30;99.80
21770;DHT22;11046;49.558;8.674;2023-02-20T09:13:41;9.60;99.80
21770;DHT22;11046;49.558;8.674;2023-02-20T09:16:43;9.80;99.40
21770;DHT22;11046;49.558;8.674;2023-02-20T09:19:43;9.80;99.20
21770;DHT22;11046;49.558;8.674;2023-02-20T09:22:44;10.00;99.10
21770;DHT22;11046;49.558;8.674;2023-02-20T09:25:44;10.10;99.10
21770;DHT22;11046;49.558;8.674;2023-02-20T09:28:45;10.30;98.70
21770;DHT22;11046;49.558;8.674;2023-02-20T09:31:45;10.50;98.70
21770;DHT22;11046;49.558;8.674;2023-02-20T09:34:46;10.70;98.50
21770;DHT22;11046;49.558;8.674;2023-02-20T09:37:47;10.70;98.30
21770;DHT22;11046;49.558;8.674;2023-02-20T09:40:49;10.70;98.10
21770;DHT22;11046;49.558;8.674;2023-02-20T09:47:26;10.80;97.60
21770;DHT22;11046;49.558;8.674;2023-02-20T09:56:56;11.00;97.30
21770;DHT22;11046;49.558;8.674;2023-02-20T10:00:09;11.10;97.40
21770;DHT22;11046;49.558;8.674;2023-02-20T10:03:24;11.30;97.10
21770;DHT22;11046;49.558;8.674;2023-02-20T10:06:31;11.70;96.90
21770;DHT22;11046;49.558;8.674;2023-02-20T10:09:32;12.10;96.70
21770;DHT22;11046;49.558;8.674;2023-02-20T10:19:48;12.80;95.20
21770;DHT22;11046;49.558;8.674;2023-02-20T10:26:21;12.70;95.00
21770;DHT22;11046;49.558;8.674;2023-02-20T10:29:25;12.70;94.70
21770;DHT22;11046;49.558;8.674;2023-02-20T10:35:36;13.10;94.50
21770;DHT22;11046;49.558;8.674;2023-02-20T10:38:50;13.40;94.40
21770;DHT22;11046;49.558;8.674;2023-02-20T10:41:54;13.40;93.60
21770;DHT22;11046;49.558;8.674;2023-02-20T10:45:13;13.40;93.70
21770;DHT22;11046;49.558;8.674;2023-02-20T10:48:16;13.50;93.70
21770;DHT22;11046;49.558;8.674;2023-02-20T10:51:29;13.70;93.80
21770;DHT22;11046;49.558;8.674;2023-02-20T10:54:40;13.90;93.30
21770;DHT22;11046;49.558;8.674;2023-02-20T10:57:47;13.80;92.90
21770;DHT22;11046;49.558;8.674;2023-02-20T11:01:01;13.80;92.90
21770;DHT22;11046;49.558;8.674;2023-02-20T11:04:20;13.70;92.50
21770;DHT22;11046;49.558;8.674;2023-02-20T11:07:25;13.80;92.40
21770;DHT22;11046;49.558;8.674;2023-02-20T11:10:28;13.80;92.50
21770;DHT22;11046;49.558;8.674;2023-02-20T11:13:30;13.80;92.70
21770;DHT22;11046;49.558;8.674;2023-02-20T11:16:35;13.90;92.60
21770;DHT22;11046;49.558;8.674;2023-02-20T11:19:47;14.10;92.50
21770;DHT22;11046;49.558;8.674;2023-02-20T11:22:48;14.20;92.50
21770;DHT22;11046;49.558;8.674;2023-02-20T11:25:49;14.40;92.40
21770;DHT22;11046;49.558;8.674;2023-02-20T11:29:11;14.60;92.10
21770;DHT22;11046;49.558;8.674;2023-02-20T11:35:23;14.50;91.70
21770;DHT22;11046;49.558;8.674;2023-02-20T11:38:29;14.50;91.30
21770;DHT22;11046;49.558;8.674;2023-02-20T11:41:35;14.40;91.20
21770;DHT22;11046;49.558;8.674;2023-02-20T11:44:39;14.40;91.20
21770;DHT22;11046;49.558;8.674;2023-02-20T11:47:39;14.50;91.30
21770;DHT22;11046;49.558;8.674;2023-02-20T11:50:47;14.60;91.00
21770;DHT22;11046;49.558;8.674;2023-02-20T11:54:26;14.40;90.70
21770;DHT22;11046;49.558;8.674;2023-02-20T11:57:29;14.50;90.40
21770;DHT22;11046;49.558;8.674;2023-02-20T12:00:45;14.40;90.50
21770;DHT22;11046;49.558;8.674;2023-02-20T12:03:54;14.30;90.40
21770;DHT22;11046;49.558;8.674;2023-02-20T12:06:55;14.20;90.70
21770;DHT22;11046;49.558;8.674;2023-02-20T12:10:10;14.20;91.10
21770;DHT22;11046;49.558;8.674;2023-02-20T12:13:16;14.20;90.80
21770;DHT22;11046;49.558;8.674;2023-02-20T12:19:25;14.30;90.70
21770;DHT22;11046;49.558;8.674;2023-02-20T12:22:33;14.30;90.60
21770;DHT22;11046;49.558;8.674;2023-02-20T12:26:11;14.40;90.30
21770;DHT22;11046;49.558;8.674;2023-02-20T12:29:32;14.40;90.20
21770;DHT22;11046;49.558;8.674;2023-02-20T12:36:38;14.40;90.00
21770;DHT22;11046;49.558;8.674;2023-02-20T12:39:46;14.40;89.90
21770;DHT22;11046;49.558;8.674;2023-02-20T12:43:35;14.50;89.60
21770;DHT22;11046;49.558;8.674;2023-02-20T12:46:49;14.60;88.90
21770;DHT22;11046;49.558;8.674;2023-02-20T12:53:20;14.80;88.50
21770;DHT22;11046;49.558;8.674;2023-02-20T12:59:39;14.90;88.80
21770;DHT22;11046;49.558;8.674;2023-02-20T13:02:49;14.90;88.70
21770;DHT22;11046;49.558;8.674;2023-02-20T13:05:51;15.00;88.50
21770;DHT22;11046;49.558;8.674;2023-02-20T13:08:59;15.00;88.40
21770;DHT22;11046;49.558;8.674;2023-02-20T13:12:13;15.10;87.90
21770;DHT22;11046;49.558;8.674;2023-02-20T13:18:38;15.30;87.20
21770;DHT22;11046;49.558;8.674;2023-02-20T13:21:44;15.40;85.30
21770;DHT22;11046;49.558;8.674;2023-02-20T13:24:47;15.40;85.20
21770;DHT22;11046;49.558;8.674;2023-02-20T13:27:59;15.50;83.40
21770;DHT22;11046;49.558;8.674;2023-02-20T13:31:14;15.40;82.10
21770;DHT22;11046;49.558;8.674;2023-02-20T13:40:42;15.70;77.60
21770;DHT22;11046;49.558;8.674;2023-02-20T13:43:43;15.60;77.60
21770;DHT22;11046;49.558;8.674;2023-02-20T13:47:00;15.50;77.60
21770;DHT22;11046;49.558;8.674;2023-02-20T13:50:27;15.30;76.80
21770;DHT22;11046;49.558;8.674;2023-02-20T13:53:29;15.30;76.30
21770;DHT22;11046;49.558;8.674;2023-02-20T13:59:48;15.20;76.50
21770;DHT22;11046;49.558;8.674;2023-02-20T14:02:50;15.00;77.10
21770;DHT22;11046;49.558;8.674;2023-02-20T14:09:13;15.10;76.50
21770;DHT22;11046;49.558;8.674;2023-02-20T14:12:15;15.10;76.20
21770;DHT22;11046;49.558;8.674;2023-02-20T14:15:17;15.00;75.70
21770;DHT22;11046;49.558;8.674;2023-02-20T14:18:29;15.00;74.70
21770;DHT22;11046;49.558;8.674;2023-02-20T14:21:32;14.90;73.90
21770;DHT22;11046;49.558;8.674;2023-02-20T14:24:34;14.80;74.60
21770;DHT22;11046;49.558;8.674;2023-02-20T14:27:34;14.60;74.40
21770;DHT22;11046;49.558;8.674;2023-02-20T14:30:35;14.60;74.90
21770;DHT22;11046;49.558;8.674;2023-02-20T14:33:36;14.60;74.90
21770;DHT22;11046;49.558;8.674;2023-02-20T14:36:58;14.60;75.00
21770;DHT22;11046;49.558;8.674;2023-02-20T14:43:23;14.40;74.30
21770;DHT22;11046;49.558;8.674;2023-02-20T14:46:29;14.30;74.60
21770;DHT22;11046;49.558;8.674;2023-02-20T14:49:30;14.30;75.00
21770;DHT22;11046;49.558;8.674;2023-02-20T14:52:31;14.20;74.80
21770;DHT22;11046;49.558;8.674;2023-02-20T14:55:31;14.10;75.00
21770;DHT22;11046;49.558;8.674;2023-02-20T14:58:35;14.20;75.50
21770;DHT22;11046;49.558;8.674;2023-02-20T15:01:39;14.10;75.50
21770;DHT22;11046;49.558;8.674;2023-02-20T15:04:52;14.10;75.40
21770;DHT22;11046;49.558;8.674;2023-02-20T15:11:20;13.90;75.30
21770;DHT22;11046;49.558;8.674;2023-02-20T15:14:23;13.90;76.00
21770;DHT22;11046;49.558;8.674;2023-02-20T15:17:29;13.90;76.00
21770;DHT22;11046;49.558;8.674;2023-02-20T15:20:34;13.80;76.00
21770;DHT22;11046;49.558;8.674;2023-02-20T15:23:41;13.80;76.00
21770;DHT22;11046;49.558;8.674;2023-02-20T15:26:42;13.80;76.30
21770;DHT22;11046;49.558;8.674;2023-02-20T15:29:44;13.80;76.50
21770;DHT22;11046;49.558;8.674;2023-02-20T15:32:51;13.70;76.50
21770;DHT22;11046;49.558;8.674;2023-02-20T15:35:51;13.70;76.60
21770;DHT22;11046;49.558;8.674;2023-02-20T15:38:53;13.70;76.80
21770;DHT22;11046;49.558;8.674;2023-02-20T15:41:54;13.60;77.10
21770;DHT22;11046;49.558;8.674;2023-02-20T15:44:55;13.70;77.40
21770;DHT22;11046;49.558;8.674;2023-02-20T15:47:56;13.60;77.50
21770;DHT22;11046;49.558;8.674;2023-02-20T15:50:58;13.50;77.60
21770;DHT22;11046;49.558;8.674;2023-02-20T15:54:00;13.40;77.90
21770;DHT22;11046;49.558;8.674;2023-02-20T15:57:01;13.40;78.20
21770;DHT22;11046;49.558;8.674;2023-02-20T16:00:03;13.40;78.20
21770;DHT22;11046;49.558;8.674;2023-02-20T16:03:06;13.30;78.50
21770;DHT22;11046;49.558;8.674;2023-02-20T16:06:06;13.30;78.60
21770;DHT22;11046;49.558;8.674;2023-02-20T16:09:07;13.20;78.70
21770;DHT22;11046;49.558;8.674;2023-02-20T16:12:27;13.20;78.70
21770;DHT22;11046;49.558;8.674;2023-02-20T16:15:32;13.20;78.70
21770;DHT22;11046;49.558;8.674;2023-02-20T16:18:34;13.20;79.00
21770;DHT22;11046;49.558;8.674;2023-02-20T16:21:39;13.10;79.00
21770;DHT22;11046;49.558;8.674;2023-02-20T16:24:42;13.10;79.30
21770;DHT22;11046;49.558;8.674;2023-02-20T16:27:45;13.00;79.70
21770;DHT22;11046;49.558;8.674;2023-02-20T16:30:49;12.90;80.20
21770;DHT22;11046;49.558;8.674;2023-02-20T16:33:50;12.90;80.60
21770;DHT22;11046;49.558;8.674;2023-02-20T16:36:51;12.80;80.90
21770;DHT22;11046;49.558;8.674;2023-02-20T16:39:52;12.70;81.10
21770;DHT22;11046;49.558;8.674;2023-02-20T16:42:53;12.60;81.60
21770;DHT22;11046;49.558;8.674;2023-02-20T16:45:54;12.50;82.10
21770;DHT22;11046;49.558;8.674;2023-02-20T16:48:54;12.50;82.40
21770;DHT22;11046;49.558;8.674;2023-02-20T16:52:00;12.40;82.40
21770;DHT22;11046;49.558;8.674;2023-02-20T16:55:02;12.30;82.80
21770;DHT22;11046;49.558;8.674;2023-02-20T16:58:04;12.20;83.00
21770;DHT22;11046;49.558;8.674;2023-02-20T17:01:05;12.00;83.40
21770;DHT22;11046;49.558;8.674;2023-02-20T17:04:11;11.90;83.80
21770;DHT22;11046;49.558;8.674;2023-02-20T17:07:17;11.80;84.10
21770;DHT22;11046;49.558;8.674;2023-02-20T17:10:19;11.70;84.30
21770;DHT22;11046;49.558;8.674;2023-02-20T17:13:20;11.70;84.60
21770;DHT22;11046;49.558;8.674;2023-02-20T17:16:23;11.60;84.90
21770;DHT22;11046;49.558;8.674;2023-02-20T17:19:25;11.40;85.80
21770;DHT22;11046;49.558;8.674;2023-02-20T17:22:28;11.40;85.60
21770;DHT22;11046;49.558;8.674;2023-02-20T17:25:31;11.30;85.70
21770;DHT22;11046;49.558;8.674;2023-02-20T17:28:39;11.20;85.80
21770;DHT22;11046;49.558;8.674;2023-02-20T17:31:44;11.20;85.90
21770;DHT22;11046;49.558;8.674;2023-02-20T17:34:50;11.10;86.10
21770;DHT22;11046;49.558;8.674;2023-02-20T17:37:52;11.00;86.50
21770;DHT22;11046;49.558;8.674;2023-02-20T17:40:53;10.90;86.70
21770;DHT22;11046;49.558;8.674;2023-02-20T17:43:57;10.90;86.80
21770;DHT22;11046;49.558;8.674;2023-02-20T17:46:59;10.80;86.90
21770;DHT22;11046;49.558;8.674;2023-02-20T17:50:03;10.80;87.20
21770;DHT22;11046;49.558;8.674;2023-02-20T17:53:05;10.80;87.30
21770;DHT22;11046;49.558;8.674;2023-02-20T17:56:17;10.70;87.40
21770;DHT22;11046;49.558;8.674;2023-02-20T17:59:19;10.60;87.90
21770;DHT22;11046;49.558;8.674;2023-02-20T18:02:26;10.50;88.10
21770;DHT22;11046;49.558;8.674;2023-02-20T18:05:28;10.50;88.40
21770;DHT22;11046;49.558;8.674;2023-02-20T18:08:34;10.40;88.40
21770;DHT22;11046;49.558;8.674;2023-02-20T18:11:42;10.40;88.80
21770;DHT22;11046;49.558;8.674;2023-02-20T18:14:46;10.40;89.10
21770;DHT22;11046;49.558;8.674;2023-02-20T18:17:48;10.30;89.20
21770;DHT22;11046;49.558;8.674;2023-02-20T18:20:53;10.30;89.40
21770;DHT22;11046;49.558;8.674;2023-02-20T18:23:58;10.30;89.60
21770;DHT22;11046;49.558;8.674;2023-02-20T18:27:05;10.30;89.80
21770;DHT22;11046;49.558;8.674;2023-02-20T18:30:08;10.30;89.90
21770;DHT22;11046;49.558;8.674;2023-02-20T18:33:10;10.30;89.90
21770;DHT22;11046;49.558;8.674;2023-02-20T18:36:20;10.30;90.00
21770;DHT22;11046;49.558;8.674;2023-02-20T18:39:22;10.30;90.10
21770;DHT22;11046;49.558;8.674;2023-02-20T18:42:27;10.30;90.20
21770;DHT22;11046;49.558;8.674;2023-02-20T18:45:34;10.30;90.20
21770;DHT22;11046;49.558;8.674;2023-02-20T18:48:40;10.30;90.20
21770;DHT22;11046;49.558;8.674;2023-02-20T18:51:43;10.30;90.60
21770;DHT22;11046;49.558;8.674;2023-02-20T18:54:46;10.30;90.30
21770;DHT22;11046;49.558;8.674;2023-02-20T18:57:49;10.20;90.30
21770;DHT22;11046;49.558;8.674;2023-02-20T19:00:53;10.20;90.30
21770;DHT22;11046;49.558;8.674;2023-02-20T19:03:54;10.10;90.40
21770;DHT22;11046;49.558;8.674;2023-02-20T19:06:57;10.10;90.50
21770;DHT22;11046;49.558;8.674;2023-02-20T19:09:59;10.00;90.50
21770;DHT22;11046;49.558;8.674;2023-02-20T19:13:03;9.90;90.60
21770;DHT22;11046;49.558;8.674;2023-02-20T19:16:11;9.90;90.70
21770;DHT22;11046;49.558;8.674;2023-02-20T19:19:17;9.90;90.90
21770;DHT22;11046;49.558;8.674;2023-02-20T19:22:21;9.80;90.90
21770;DHT22;11046;49.558;8.674;2023-02-20T19:25:24;9.80;90.90
21770;DHT22;11046;49.558;8.674;2023-02-20T19:28:25;9.80;91.30
21770;DHT22;11046;49.558;8.674;2023-02-20T19:31:26;9.70;90.90
21770;DHT22;11046;49.558;8.674;2023-02-20T19:34:28;9.60;91.10
21770;DHT22;11046;49.558;8.674;2023-02-20T19:37:29;9.50;91.20
21770;DHT22;11046;49.558;8.674;2023-02-20T19:40:33;9.40;91.40
21770;DHT22;11046;49.558;8.674;2023-02-20T19:43:34;9.30;91.50
21770;DHT22;11046;49.558;8.674;2023-02-20T19:46:35;9.30;91.60
21770;DHT22;11046;49.558;8.674;2023-02-20T19:49:43;9.30;91.60
21770;DHT22;11046;49.558;8.674;2023-02-20T19:52:44;9.20;91.60
21770;DHT22;11046;49.558;8.674;2023-02-20T19:55:45;9.20;91.70
21770;DHT22;11046;49.558;8.674;2023-02-20T19:58:48;9.10;91.70
21770;DHT22;11046;49.558;8.674;2023-02-20T20:01:54;9.00;91.90
21770;DHT22;11046;49.558;8.674;2023-02-20T20:04:56;8.90;92.00
21770;DHT22;11046;49.558;8.674;2023-02-20T20:07:58;8.90;92.10
21770;DHT22;11046;49.558;8.674;2023-02-20T20:11:00;8.80;92.20
21770;DHT22;11046;49.558;8.674;2023-02-20T20:14:01;8.80;92.30
21770;DHT22;11046;49.558;8.674;2023-02-20T20:17:02;8.80;92.30
21770;DHT22;11046;49.558;8.674;2023-02-20T20:20:05;8.70;92.50
21770;DHT22;11046;49.558;8.674;2023-02-20T20:23:06;8.60;92.50
21770;DHT22;11046;49.558;8.674;2023-02-20T20:26:07;8.60;92.50
21770;DHT22;11046;49.558;8.674;2023-02-20T20:29:08;8.50;92.60
21770;DHT22;11046;49.558;8.674;2023-02-20T20:32:09;8.50;92.60
21770;DHT22;11046;49.558;8.674;2023-02-20T20:35:10;8.50;92.70
21770;DHT22;11046;49.558;8.674;2023-02-20T20:38:11;8.40;92.90
21770;DHT22;11046;49.558;8.674;2023-02-20T20:41:12;8.30;93.00
21770;DHT22;11046;49.558;8.674;2023-02-20T20:44:14;8.30;93.10
21770;DHT22;11046;49.558;8.674;2023-02-20T20:47:17;8.20;93.10
21770;DHT22;11046;49.558;8.674;2023-02-20T20:50:21;8.20;93.20
21770;DHT22;11046;49.558;8.674;2023-02-20T20:53:23;8.10;93.20
21770;DHT22;11046;49.558;8.674;2023-02-20T20:56:24;8.10;93.30
21770;DHT22;11046;49.558;8.674;2023-02-20T20:59:25;8.00;93.40
21770;DHT22;11046;49.558;8.674;2023-02-20T21:02:27;8.00;93.50
21770;DHT22;11046;49.558;8.674;2023-02-20T21:05:31;7.90;93.50
21770;DHT22;11046;49.558;8.674;2023-02-20T21:08:33;7.90;93.60
21770;DHT22;11046;49.558;8.674;2023-02-20T21:11:34;7.90;93.60